sensor_id;sensor_type;location;lat;lon;timestamp;P1;durP1;ratioP1;P2;durP2;ratioP2
12878;SDS011;20617;49.476;10.986;2023-05-07T00:01:10;4.90;;;2.85;;
12878;SDS011;20617;49.476;10.986;2023-05-07T00:03:21;2.25;;;2.05;;
12878;SDS011;20617;49.476;10.986;2023-05-07T00:05:28;3.17;;;2.60;;
12878;SDS011;20617;49.476;10.986;2023-05-07T00:07:34;3.00;;;2.38;;
12878;SDS011;20617;49.476;10.986;2023-05-07T00:09:44;3.70;;;2.60;;
12878;SDS011;20617;49.476;10.986;2023-05-07T00:13:54;2.95;;;2.20;;
12878;SDS011;20617;49.476;10.986;2023-05-07T00:16:01;3.42;;;2.60;;
12878;SDS011;20617;49.476;10.986;2023-05-07T00:18:07;2.65;;;2.30;;
12878;SDS011;20617;49.476;10.986;2023-05-07T00:20:12;5.95;;;2.30;;
12878;SDS011;20617;49.476;10.986;2023-05-07T00:22:19;5.50;;;2.45;;
12878;SDS011;20617;49.476;10.986;2023-05-07T00:24:24;2.63;;;2.42;;
12878;SDS011;20617;49.476;10.986;2023-05-07T00:26:29;4.68;;;2.30;;
12878;SDS011;20617;49.476;10.986;2023-05-07T00:28:34;4.82;;;2.17;;
12878;SDS011;20617;49.476;10.986;2023-05-07T00:30:39;3.13;;;2.13;;
12878;SDS011;20617;49.476;10.986;2023-05-07T00:32:46;5.68;;;2.20;;
12878;SDS011;20617;49.476;10.986;2023-05-07T00:34:52;2.30;;;1.92;;
12878;SDS011;20617;49.476;10.986;2023-05-07T00:39:03;4.40;;;2.20;;
12878;SDS011;20617;49.476;10.986;2023-05-07T00:43:20;5.28;;;2.80;;
12878;SDS011;20617;49.476;10.986;2023-05-07T00:45:26;3.95;;;2.65;;
12878;SDS011;20617;49.476;10.986;2023-05-07T00:47:32;2.85;;;2.10;;
12878;SDS011;20617;49.476;10.986;2023-05-07T00:49:41;4.70;;;2.70;;
12878;SDS011;20617;49.476;10.986;2023-05-07T00:51:48;4.13;;;2.50;;
12878;SDS011;20617;49.476;10.986;2023-05-07T00:53:54;4.07;;;2.75;;
12878;SDS011;20617;49.476;10.986;2023-05-07T00:56:00;4.45;;;2.45;;
12878;SDS011;20617;49.476;10.986;2023-05-07T01:00:10;6.95;;;2.75;;
12878;SDS011;20617;49.476;10.986;2023-05-07T01:02:16;5.80;;;2.67;;
12878;SDS011;20617;49.476;10.986;2023-05-07T01:06:30;4.78;;;2.78;;
12878;SDS011;20617;49.476;10.986;2023-05-07T01:08:39;4.55;;;2.80;;
12878;SDS011;20617;49.476;10.986;2023-05-07T01:10:45;2.63;;;2.15;;
12878;SDS011;20617;49.476;10.986;2023-05-07T01:12:51;3.60;;;2.50;;
12878;SDS011;20617;49.476;10.986;2023-05-07T01:14:58;4.45;;;2.85;;
12878;SDS011;20617;49.476;10.986;2023-05-07T01:17:03;6.03;;;2.75;;
12878;SDS011;20617;49.476;10.986;2023-05-07T01:19:09;4.13;;;2.58;;
12878;SDS011;20617;49.476;10.986;2023-05-07T01:21:17;3.65;;;2.45;;
12878;SDS011;20617;49.476;10.986;2023-05-07T01:23:25;3.58;;;2.35;;
12878;SDS011;20617;49.476;10.986;2023-05-07T01:25:32;4.68;;;2.55;;
12878;SDS011;20617;49.476;10.986;2023-05-07T01:27:37;2.97;;;2.20;;
12878;SDS011;20617;49.476;10.986;2023-05-07T01:29:42;2.50;;;1.98;;
12878;SDS011;20617;49.476;10.986;2023-05-07T01:33:53;3.22;;;1.90;;
12878;SDS011;20617;49.476;10.986;2023-05-07T01:36:01;3.55;;;2.03;;
12878;SDS011;20617;49.476;10.986;2023-05-07T01:38:08;2.42;;;2.10;;
12878;SDS011;20617;49.476;10.986;2023-05-07T01:40:16;3.70;;;2.38;;
12878;SDS011;20617;49.476;10.986;2023-05-07T01:42:21;3.50;;;2.17;;
12878;SDS011;20617;49.476;10.986;2023-05-07T01:44:27;3.80;;;2.30;;
12878;SDS011;20617;49.476;10.986;2023-05-07T01:46:33;2.97;;;2.35;;
12878;SDS011;20617;49.476;10.986;2023-05-07T01:48:39;2.70;;;2.10;;
12878;SDS011;20617;49.476;10.986;2023-05-07T01:50:47;2.97;;;2.13;;
12878;SDS011;20617;49.476;10.986;2023-05-07T01:52:53;5.30;;;2.30;;
12878;SDS011;20617;49.476;10.986;2023-05-07T01:54:59;2.35;;;2.00;;
12878;SDS011;20617;49.476;10.986;2023-05-07T01:57:07;3.58;;;2.25;;
12878;SDS011;20617;49.476;10.986;2023-05-07T01:59:12;2.83;;;2.22;;
12878;SDS011;20617;49.476;10.986;2023-05-07T02:01:20;2.20;;;2.00;;
12878;SDS011;20617;49.476;10.986;2023-05-07T02:03:26;3.35;;;2.22;;
12878;SDS011;20617;49.476;10.986;2023-05-07T02:05:41;3.28;;;2.30;;
12878;SDS011;20617;49.476;10.986;2023-05-07T02:07:54;3.42;;;2.53;;
12878;SDS011;20617;49.476;10.986;2023-05-07T02:10:01;2.45;;;2.10;;
12878;SDS011;20617;49.476;10.986;2023-05-07T02:12:10;3.08;;;2.38;;
12878;SDS011;20617;49.476;10.986;2023-05-07T02:14:16;4.70;;;3.00;;
12878;SDS011;20617;49.476;10.986;2023-05-07T02:16:22;3.45;;;2.80;;
12878;SDS011;20617;49.476;10.986;2023-05-07T02:18:28;4.70;;;2.90;;
12878;SDS011;20617;49.476;10.986;2023-05-07T02:20:34;5.00;;;3.15;;
12878;SDS011;20617;49.476;10.986;2023-05-07T02:22:41;2.95;;;2.58;;
12878;SDS011;20617;49.476;10.986;2023-05-07T02:24:46;4.45;;;2.83;;
12878;SDS011;20617;49.476;10.986;2023-05-07T02:26:52;3.75;;;2.83;;
12878;SDS011;20617;49.476;10.986;2023-05-07T02:29:01;2.72;;;2.30;;
12878;SDS011;20617;49.476;10.986;2023-05-07T02:31:07;4.97;;;2.63;;
12878;SDS011;20617;49.476;10.986;2023-05-07T02:33:12;3.63;;;2.67;;
12878;SDS011;20617;49.476;10.986;2023-05-07T02:35:20;3.28;;;2.63;;
12878;SDS011;20617;49.476;10.986;2023-05-07T02:37:26;4.85;;;2.58;;
12878;SDS011;20617;49.476;10.986;2023-05-07T02:39:31;3.80;;;2.80;;
12878;SDS011;20617;49.476;10.986;2023-05-07T02:41:37;3.33;;;2.60;;
12878;SDS011;20617;49.476;10.986;2023-05-07T02:43:42;4.18;;;2.40;;
12878;SDS011;20617;49.476;10.986;2023-05-07T02:45:50;3.65;;;3.20;;
12878;SDS011;20617;49.476;10.986;2023-05-07T02:48:06;4.50;;;2.60;;
12878;SDS011;20617;49.476;10.986;2023-05-07T02:54:25;4.95;;;2.75;;
12878;SDS011;20617;49.476;10.986;2023-05-07T02:56:30;3.55;;;2.92;;
12878;SDS011;20617;49.476;10.986;2023-05-07T02:58:35;4.00;;;3.03;;
12878;SDS011;20617;49.476;10.986;2023-05-07T03:00:42;4.05;;;3.35;;
12878;SDS011;20617;49.476;10.986;2023-05-07T03:03:07;3.22;;;2.75;;
12878;SDS011;20617;49.476;10.986;2023-05-07T03:05:16;5.43;;;3.50;;
12878;SDS011;20617;49.476;10.986;2023-05-07T03:07:21;4.88;;;2.95;;
12878;SDS011;20617;49.476;10.986;2023-05-07T03:09:32;3.53;;;2.70;;
12878;SDS011;20617;49.476;10.986;2023-05-07T03:11:41;4.90;;;3.03;;
12878;SDS011;20617;49.476;10.986;2023-05-07T03:13:46;4.05;;;3.03;;
12878;SDS011;20617;49.476;10.986;2023-05-07T03:15:55;5.63;;;3.28;;
12878;SDS011;20617;49.476;10.986;2023-05-07T03:18:00;4.25;;;3.30;;
12878;SDS011;20617;49.476;10.986;2023-05-07T03:20:09;4.55;;;3.47;;
12878;SDS011;20617;49.476;10.986;2023-05-07T03:22:16;3.90;;;3.15;;
12878;SDS011;20617;49.476;10.986;2023-05-07T03:24:22;6.25;;;3.67;;
12878;SDS011;20617;49.476;10.986;2023-05-07T03:28:32;5.93;;;3.55;;
12878;SDS011;20617;49.476;10.986;2023-05-07T03:30:39;7.10;;;3.78;;
12878;SDS011;20617;49.476;10.986;2023-05-07T03:34:49;4.63;;;3.92;;
12878;SDS011;20617;49.476;10.986;2023-05-07T03:36:58;5.00;;;3.50;;
12878;SDS011;20617;49.476;10.986;2023-05-07T03:39:03;4.63;;;3.78;;
12878;SDS011;20617;49.476;10.986;2023-05-07T03:41:13;5.97;;;4.07;;
12878;SDS011;20617;49.476;10.986;2023-05-07T03:43:19;7.80;;;4.55;;
12878;SDS011;20617;49.476;10.986;2023-05-07T03:45:32;5.85;;;4.40;;
12878;SDS011;20617;49.476;10.986;2023-05-07T03:47:45;6.88;;;4.40;;
12878;SDS011;20617;49.476;10.986;2023-05-07T03:49:53;6.20;;;4.18;;
12878;SDS011;20617;49.476;10.986;2023-05-07T03:52:01;6.13;;;4.53;;
12878;SDS011;20617;49.476;10.986;2023-05-07T03:54:07;6.32;;;4.22;;
12878;SDS011;20617;49.476;10.986;2023-05-07T03:56:17;6.05;;;4.75;;
12878;SDS011;20617;49.476;10.986;2023-05-07T03:58:28;5.82;;;4.88;;
12878;SDS011;20617;49.476;10.986;2023-05-07T04:00:37;6.68;;;4.95;;
12878;SDS011;20617;49.476;10.986;2023-05-07T04:03:00;5.22;;;4.72;;
12878;SDS011;20617;49.476;10.986;2023-05-07T04:05:06;6.82;;;4.70;;
12878;SDS011;20617;49.476;10.986;2023-05-07T04:07:16;5.93;;;4.57;;
12878;SDS011;20617;49.476;10.986;2023-05-07T04:09:24;6.18;;;4.07;;
12878;SDS011;20617;49.476;10.986;2023-05-07T04:11:31;5.53;;;4.45;;
12878;SDS011;20617;49.476;10.986;2023-05-07T04:15:43;5.68;;;4.35;;
12878;SDS011;20617;49.476;10.986;2023-05-07T04:17:50;6.80;;;4.85;;
12878;SDS011;20617;49.476;10.986;2023-05-07T04:19:57;5.53;;;4.82;;
12878;SDS011;20617;49.476;10.986;2023-05-07T04:22:04;5.40;;;4.68;;
12878;SDS011;20617;49.476;10.986;2023-05-07T04:24:11;8.40;;;4.47;;
12878;SDS011;20617;49.476;10.986;2023-05-07T04:26:16;5.53;;;4.65;;
12878;SDS011;20617;49.476;10.986;2023-05-07T04:28:23;7.50;;;4.90;;
12878;SDS011;20617;49.476;10.986;2023-05-07T04:30:28;6.68;;;5.65;;
12878;SDS011;20617;49.476;10.986;2023-05-07T04:32:33;6.20;;;4.65;;
12878;SDS011;20617;49.476;10.986;2023-05-07T04:34:39;6.00;;;4.88;;
12878;SDS011;20617;49.476;10.986;2023-05-07T04:36:44;7.18;;;5.38;;
12878;SDS011;20617;49.476;10.986;2023-05-07T04:40:57;5.22;;;4.47;;
12878;SDS011;20617;49.476;10.986;2023-05-07T04:43:03;5.55;;;4.60;;
12878;SDS011;20617;49.476;10.986;2023-05-07T04:45:14;7.25;;;5.80;;
12878;SDS011;20617;49.476;10.986;2023-05-07T04:47:21;6.72;;;6.03;;
12878;SDS011;20617;49.476;10.986;2023-05-07T04:51:32;7.85;;;6.22;;
12878;SDS011;20617;49.476;10.986;2023-05-07T04:55:42;6.85;;;6.15;;
12878;SDS011;20617;49.476;10.986;2023-05-07T04:57:47;7.45;;;5.85;;
12878;SDS011;20617;49.476;10.986;2023-05-07T04:59:52;8.20;;;5.80;;
12878;SDS011;20617;49.476;10.986;2023-05-07T05:01:57;9.00;;;6.32;;
12878;SDS011;20617;49.476;10.986;2023-05-07T05:04:03;8.23;;;5.88;;
12878;SDS011;20617;49.476;10.986;2023-05-07T05:06:08;7.93;;;6.28;;
12878;SDS011;20617;49.476;10.986;2023-05-07T05:08:13;7.53;;;6.72;;
12878;SDS011;20617;49.476;10.986;2023-05-07T05:10:21;6.57;;;5.88;;
12878;SDS011;20617;49.476;10.986;2023-05-07T05:12:26;8.35;;;6.55;;
12878;SDS011;20617;49.476;10.986;2023-05-07T05:14:36;6.85;;;6.15;;
12878;SDS011;20617;49.476;10.986;2023-05-07T05:16:42;9.10;;;6.93;;
12878;SDS011;20617;49.476;10.986;2023-05-07T05:20:53;7.47;;;6.53;;
12878;SDS011;20617;49.476;10.986;2023-05-07T05:22:58;7.88;;;6.03;;
12878;SDS011;20617;49.476;10.986;2023-05-07T05:25:05;6.53;;;5.88;;
12878;SDS011;20617;49.476;10.986;2023-05-07T05:27:11;7.60;;;5.68;;
12878;SDS011;20617;49.476;10.986;2023-05-07T05:29:16;11.05;;;6.88;;
12878;SDS011;20617;49.476;10.986;2023-05-07T05:31:23;8.73;;;6.00;;
12878;SDS011;20617;49.476;10.986;2023-05-07T05:33:31;9.85;;;6.32;;
12878;SDS011;20617;49.476;10.986;2023-05-07T05:35:39;7.40;;;6.22;;
12878;SDS011;20617;49.476;10.986;2023-05-07T05:37:46;8.60;;;6.28;;
12878;SDS011;20617;49.476;10.986;2023-05-07T05:39:53;7.13;;;5.80;;
12878;SDS011;20617;49.476;10.986;2023-05-07T05:42:01;7.00;;;6.28;;
12878;SDS011;20617;49.476;10.986;2023-05-07T05:44:08;7.80;;;6.63;;
12878;SDS011;20617;49.476;10.986;2023-05-07T05:46:15;7.80;;;6.35;;
12878;SDS011;20617;49.476;10.986;2023-05-07T05:48:24;6.88;;;6.18;;
12878;SDS011;20617;49.476;10.986;2023-05-07T05:50:29;6.70;;;6.10;;
12878;SDS011;20617;49.476;10.986;2023-05-07T05:52:34;5.82;;;5.22;;
12878;SDS011;20617;49.476;10.986;2023-05-07T05:54:40;7.55;;;6.15;;
12878;SDS011;20617;49.476;10.986;2023-05-07T05:58:50;8.90;;;5.97;;
12878;SDS011;20617;49.476;10.986;2023-05-07T06:00:55;6.28;;;5.60;;
12878;SDS011;20617;49.476;10.986;2023-05-07T06:03:02;7.80;;;6.72;;
12878;SDS011;20617;49.476;10.986;2023-05-07T06:05:11;7.95;;;6.45;;
12878;SDS011;20617;49.476;10.986;2023-05-07T06:07:17;11.25;;;6.20;;
12878;SDS011;20617;49.476;10.986;2023-05-07T06:11:27;7.15;;;6.45;;
12878;SDS011;20617;49.476;10.986;2023-05-07T06:13:32;7.93;;;5.78;;
12878;SDS011;20617;49.476;10.986;2023-05-07T06:15:36;7.20;;;6.03;;
12878;SDS011;20617;49.476;10.986;2023-05-07T06:17:44;9.57;;;5.85;;
12878;SDS011;20617;49.476;10.986;2023-05-07T06:19:51;9.25;;;6.18;;
12878;SDS011;20617;49.476;10.986;2023-05-07T06:21:59;6.95;;;6.18;;
12878;SDS011;20617;49.476;10.986;2023-05-07T06:24:07;6.45;;;5.43;;
12878;SDS011;20617;49.476;10.986;2023-05-07T06:26:16;6.68;;;5.82;;
12878;SDS011;20617;49.476;10.986;2023-05-07T06:28:22;6.97;;;5.50;;
12878;SDS011;20617;49.476;10.986;2023-05-07T06:30:27;5.78;;;5.20;;
12878;SDS011;20617;49.476;10.986;2023-05-07T06:32:33;6.57;;;5.65;;
12878;SDS011;20617;49.476;10.986;2023-05-07T06:34:40;6.22;;;5.03;;
12878;SDS011;20617;49.476;10.986;2023-05-07T06:36:46;6.40;;;5.70;;
12878;SDS011;20617;49.476;10.986;2023-05-07T06:39:09;7.20;;;6.03;;
12878;SDS011;20617;49.476;10.986;2023-05-07T06:41:14;7.32;;;5.10;;
12878;SDS011;20617;49.476;10.986;2023-05-07T06:43:22;6.88;;;5.97;;
12878;SDS011;20617;49.476;10.986;2023-05-07T06:45:50;5.95;;;5.25;;
12878;SDS011;20617;49.476;10.986;2023-05-07T06:47:55;6.63;;;5.55;;
12878;SDS011;20617;49.476;10.986;2023-05-07T06:50:03;6.47;;;5.68;;
12878;SDS011;20617;49.476;10.986;2023-05-07T06:52:09;5.95;;;5.30;;
12878;SDS011;20617;49.476;10.986;2023-05-07T06:54:18;7.50;;;5.38;;
12878;SDS011;20617;49.476;10.986;2023-05-07T06:56:27;5.90;;;5.20;;
12878;SDS011;20617;49.476;10.986;2023-05-07T06:58:32;10.07;;;6.00;;
12878;SDS011;20617;49.476;10.986;2023-05-07T07:00:37;6.22;;;5.32;;
12878;SDS011;20617;49.476;10.986;2023-05-07T07:02:42;7.18;;;5.30;;
12878;SDS011;20617;49.476;10.986;2023-05-07T07:04:50;7.18;;;4.90;;
12878;SDS011;20617;49.476;10.986;2023-05-07T07:06:55;6.50;;;5.70;;
12878;SDS011;20617;49.476;10.986;2023-05-07T07:09:01;5.65;;;5.05;;
12878;SDS011;20617;49.476;10.986;2023-05-07T07:11:09;5.65;;;5.05;;
12878;SDS011;20617;49.476;10.986;2023-05-07T07:13:14;10.63;;;5.97;;
12878;SDS011;20617;49.476;10.986;2023-05-07T07:15:20;6.72;;;5.55;;
12878;SDS011;20617;49.476;10.986;2023-05-07T07:17:28;5.93;;;5.32;;
12878;SDS011;20617;49.476;10.986;2023-05-07T07:21:39;6.32;;;5.15;;
12878;SDS011;20617;49.476;10.986;2023-05-07T07:23:45;6.95;;;5.50;;
12878;SDS011;20617;49.476;10.986;2023-05-07T07:25:51;8.60;;;5.80;;
12878;SDS011;20617;49.476;10.986;2023-05-07T07:27:59;6.10;;;5.47;;
12878;SDS011;20617;49.476;10.986;2023-05-07T07:30:05;8.70;;;5.30;;
12878;SDS011;20617;49.476;10.986;2023-05-07T07:32:14;7.95;;;5.50;;
12878;SDS011;20617;49.476;10.986;2023-05-07T07:34:22;5.78;;;5.13;;
12878;SDS011;20617;49.476;10.986;2023-05-07T07:36:27;6.57;;;4.28;;
12878;SDS011;20617;49.476;10.986;2023-05-07T07:38:48;7.25;;;4.78;;
12878;SDS011;20617;49.476;10.986;2023-05-07T07:40:53;7.15;;;5.43;;
12878;SDS011;20617;49.476;10.986;2023-05-07T07:43:01;6.03;;;5.40;;
12878;SDS011;20617;49.476;10.986;2023-05-07T07:45:07;4.90;;;4.38;;
12878;SDS011;20617;49.476;10.986;2023-05-07T07:47:17;5.22;;;4.50;;
12878;SDS011;20617;49.476;10.986;2023-05-07T07:49:23;5.85;;;4.35;;
12878;SDS011;20617;49.476;10.986;2023-05-07T07:51:31;5.47;;;3.97;;
12878;SDS011;20617;49.476;10.986;2023-05-07T07:53:40;5.38;;;4.88;;
12878;SDS011;20617;49.476;10.986;2023-05-07T07:55:45;7.30;;;5.13;;
12878;SDS011;20617;49.476;10.986;2023-05-07T07:57:56;6.05;;;4.78;;
12878;SDS011;20617;49.476;10.986;2023-05-07T08:00:07;5.53;;;4.85;;
12878;SDS011;20617;49.476;10.986;2023-05-07T08:02:22;6.35;;;5.03;;
12878;SDS011;20617;49.476;10.986;2023-05-07T08:04:29;5.75;;;4.75;;
12878;SDS011;20617;49.476;10.986;2023-05-07T08:06:38;5.43;;;4.65;;
12878;SDS011;20617;49.476;10.986;2023-05-07T08:08:44;6.10;;;4.45;;
12878;SDS011;20617;49.476;10.986;2023-05-07T08:10:50;4.78;;;4.25;;
12878;SDS011;20617;49.476;10.986;2023-05-07T08:13:02;5.35;;;4.75;;
12878;SDS011;20617;49.476;10.986;2023-05-07T08:15:13;6.88;;;4.82;;
12878;SDS011;20617;49.476;10.986;2023-05-07T08:17:19;7.80;;;4.57;;
12878;SDS011;20617;49.476;10.986;2023-05-07T08:19:25;6.70;;;4.32;;
12878;SDS011;20617;49.476;10.986;2023-05-07T08:21:30;6.57;;;5.00;;
12878;SDS011;20617;49.476;10.986;2023-05-07T08:23:36;6.15;;;4.57;;
12878;SDS011;20617;49.476;10.986;2023-05-07T08:25:41;6.32;;;4.95;;
12878;SDS011;20617;49.476;10.986;2023-05-07T08:27:47;6.28;;;4.25;;
12878;SDS011;20617;49.476;10.986;2023-05-07T08:29:52;9.13;;;5.20;;
12878;SDS011;20617;49.476;10.986;2023-05-07T08:32:00;5.50;;;4.10;;
12878;SDS011;20617;49.476;10.986;2023-05-07T08:34:05;5.70;;;4.40;;
12878;SDS011;20617;49.476;10.986;2023-05-07T08:36:14;4.70;;;4.05;;
12878;SDS011;20617;49.476;10.986;2023-05-07T08:38:21;5.85;;;4.53;;
12878;SDS011;20617;49.476;10.986;2023-05-07T08:40:26;7.75;;;4.35;;
12878;SDS011;20617;49.476;10.986;2023-05-07T08:42:35;4.82;;;3.90;;
12878;SDS011;20617;49.476;10.986;2023-05-07T08:44:41;5.05;;;4.22;;
12878;SDS011;20617;49.476;10.986;2023-05-07T08:46:51;6.43;;;3.95;;
12878;SDS011;20617;49.476;10.986;2023-05-07T08:49:01;5.68;;;4.20;;
12878;SDS011;20617;49.476;10.986;2023-05-07T08:51:08;4.18;;;3.78;;
12878;SDS011;20617;49.476;10.986;2023-05-07T08:53:17;5.53;;;3.83;;
12878;SDS011;20617;49.476;10.986;2023-05-07T08:55:24;5.95;;;4.18;;
12878;SDS011;20617;49.476;10.986;2023-05-07T08:57:29;5.18;;;4.68;;
12878;SDS011;20617;49.476;10.986;2023-05-07T08:59:34;9.85;;;4.65;;
12878;SDS011;20617;49.476;10.986;2023-05-07T09:01:39;7.70;;;4.55;;
12878;SDS011;20617;49.476;10.986;2023-05-07T09:03:45;4.07;;;3.67;;
12878;SDS011;20617;49.476;10.986;2023-05-07T09:05:54;3.97;;;3.53;;
12878;SDS011;20617;49.476;10.986;2023-05-07T09:08:01;4.25;;;3.25;;
12878;SDS011;20617;49.476;10.986;2023-05-07T09:10:07;4.93;;;4.10;;
12878;SDS011;20617;49.476;10.986;2023-05-07T09:12:15;4.75;;;4.22;;
12878;SDS011;20617;49.476;10.986;2023-05-07T09:14:22;5.32;;;4.47;;
12878;SDS011;20617;49.476;10.986;2023-05-07T09:16:30;7.38;;;4.28;;
12878;SDS011;20617;49.476;10.986;2023-05-07T09:18:40;4.50;;;3.55;;
12878;SDS011;20617;49.476;10.986;2023-05-07T09:20:47;5.43;;;4.70;;
12878;SDS011;20617;49.476;10.986;2023-05-07T09:22:57;3.83;;;3.45;;
12878;SDS011;20617;49.476;10.986;2023-05-07T09:25:04;8.27;;;4.13;;
12878;SDS011;20617;49.476;10.986;2023-05-07T09:27:12;4.65;;;4.25;;
12878;SDS011;20617;49.476;10.986;2023-05-07T09:29:19;4.60;;;4.10;;
12878;SDS011;20617;49.476;10.986;2023-05-07T09:31:24;5.68;;;4.05;;
12878;SDS011;20617;49.476;10.986;2023-05-07T09:33:30;4.70;;;3.72;;
12878;SDS011;20617;49.476;10.986;2023-05-07T09:35:37;5.55;;;4.40;;
12878;SDS011;20617;49.476;10.986;2023-05-07T09:37:49;5.72;;;4.07;;
12878;SDS011;20617;49.476;10.986;2023-05-07T09:39:57;5.35;;;3.88;;
12878;SDS011;20617;49.476;10.986;2023-05-07T09:42:04;5.47;;;4.00;;
12878;SDS011;20617;49.476;10.986;2023-05-07T09:44:11;4.63;;;3.70;;
12878;SDS011;20617;49.476;10.986;2023-05-07T09:46:24;5.57;;;4.07;;
12878;SDS011;20617;49.476;10.986;2023-05-07T09:48:37;3.38;;;2.95;;
12878;SDS011;20617;49.476;10.986;2023-05-07T09:50:48;4.80;;;3.78;;
12878;SDS011;20617;49.476;10.986;2023-05-07T09:52:57;4.50;;;3.55;;
12878;SDS011;20617;49.476;10.986;2023-05-07T09:55:06;3.92;;;3.40;;
12878;SDS011;20617;49.476;10.986;2023-05-07T09:57:16;4.00;;;3.60;;
12878;SDS011;20617;49.476;10.986;2023-05-07T09:59:31;3.97;;;3.58;;
12878;SDS011;20617;49.476;10.986;2023-05-07T10:01:41;4.57;;;3.92;;
12878;SDS011;20617;49.476;10.986;2023-05-07T10:03:48;4.82;;;4.03;;
12878;SDS011;20617;49.476;10.986;2023-05-07T10:05:55;4.68;;;3.78;;
12878;SDS011;20617;49.476;10.986;2023-05-07T10:08:03;4.72;;;3.75;;
12878;SDS011;20617;49.476;10.986;2023-05-07T10:10:13;7.95;;;3.90;;
12878;SDS011;20617;49.476;10.986;2023-05-07T10:12:20;5.75;;;4.28;;
12878;SDS011;20617;49.476;10.986;2023-05-07T10:14:26;4.55;;;3.53;;
12878;SDS011;20617;49.476;10.986;2023-05-07T10:16:34;5.55;;;4.90;;
12878;SDS011;20617;49.476;10.986;2023-05-07T10:18:45;5.30;;;4.03;;
12878;SDS011;20617;49.476;10.986;2023-05-07T10:20:55;4.55;;;3.80;;
12878;SDS011;20617;49.476;10.986;2023-05-07T10:23:06;7.75;;;4.03;;
12878;SDS011;20617;49.476;10.986;2023-05-07T10:25:20;5.53;;;3.50;;
12878;SDS011;20617;49.476;10.986;2023-05-07T10:27:31;4.68;;;3.22;;
12878;SDS011;20617;49.476;10.986;2023-05-07T10:29:37;3.55;;;3.25;;
12878;SDS011;20617;49.476;10.986;2023-05-07T10:31:52;5.97;;;3.83;;
12878;SDS011;20617;49.476;10.986;2023-05-07T10:34:03;4.50;;;3.55;;
12878;SDS011;20617;49.476;10.986;2023-05-07T10:36:14;5.53;;;4.15;;
12878;SDS011;20617;49.476;10.986;2023-05-07T10:38:20;4.60;;;3.58;;
12878;SDS011;20617;49.476;10.986;2023-05-07T10:40:30;6.90;;;3.97;;
12878;SDS011;20617;49.476;10.986;2023-05-07T10:42:36;4.47;;;3.20;;
12878;SDS011;20617;49.476;10.986;2023-05-07T10:44:41;4.05;;;3.60;;
12878;SDS011;20617;49.476;10.986;2023-05-07T10:47:07;3.42;;;3.13;;
12878;SDS011;20617;49.476;10.986;2023-05-07T10:49:16;5.10;;;2.88;;
12878;SDS011;20617;49.476;10.986;2023-05-07T10:51:30;3.42;;;2.80;;
12878;SDS011;20617;49.476;10.986;2023-05-07T10:53:43;4.55;;;3.65;;
12878;SDS011;20617;49.476;10.986;2023-05-07T10:58:41;4.05;;;3.28;;
12878;SDS011;20617;49.476;10.986;2023-05-07T11:01:00;4.15;;;2.65;;
12878;SDS011;20617;49.476;10.986;2023-05-07T11:03:11;3.40;;;2.67;;
12878;SDS011;20617;49.476;10.986;2023-05-07T11:05:23;3.97;;;3.25;;
12878;SDS011;20617;49.476;10.986;2023-05-07T11:07:47;3.58;;;3.17;;
12878;SDS011;20617;49.476;10.986;2023-05-07T11:10:05;3.30;;;3.00;;
12878;SDS011;20617;49.476;10.986;2023-05-07T11:12:52;3.83;;;2.78;;
12878;SDS011;20617;49.476;10.986;2023-05-07T11:17:54;4.22;;;2.58;;
12878;SDS011;20617;49.476;10.986;2023-05-07T11:20:07;5.85;;;3.17;;
12878;SDS011;20617;49.476;10.986;2023-05-07T11:22:35;3.05;;;2.17;;
12878;SDS011;20617;49.476;10.986;2023-05-07T11:24:53;4.60;;;2.75;;
12878;SDS011;20617;49.476;10.986;2023-05-07T11:26:58;4.00;;;2.40;;
12878;SDS011;20617;49.476;10.986;2023-05-07T11:29:08;4.93;;;3.10;;
12878;SDS011;20617;49.476;10.986;2023-05-07T11:33:55;3.05;;;2.10;;
12878;SDS011;20617;49.476;10.986;2023-05-07T11:36:02;3.63;;;2.47;;
12878;SDS011;20617;49.476;10.986;2023-05-07T11:38:14;3.60;;;2.40;;
12878;SDS011;20617;49.476;10.986;2023-05-07T11:40:19;3.17;;;2.28;;
12878;SDS011;20617;49.476;10.986;2023-05-07T11:42:27;4.53;;;2.38;;
12878;SDS011;20617;49.476;10.986;2023-05-07T11:44:45;3.80;;;2.90;;
12878;SDS011;20617;49.476;10.986;2023-05-07T11:46:50;3.83;;;2.90;;
12878;SDS011;20617;49.476;10.986;2023-05-07T11:48:55;3.45;;;2.50;;
12878;SDS011;20617;49.476;10.986;2023-05-07T11:51:01;4.00;;;2.72;;
12878;SDS011;20617;49.476;10.986;2023-05-07T11:53:07;3.35;;;2.53;;
12878;SDS011;20617;49.476;10.986;2023-05-07T11:55:14;3.78;;;2.80;;
12878;SDS011;20617;49.476;10.986;2023-05-07T11:57:26;3.35;;;2.50;;
12878;SDS011;20617;49.476;10.986;2023-05-07T11:59:37;3.38;;;2.53;;
12878;SDS011;20617;49.476;10.986;2023-05-07T12:01:48;2.90;;;2.55;;
12878;SDS011;20617;49.476;10.986;2023-05-07T12:03:53;2.33;;;2.10;;
12878;SDS011;20617;49.476;10.986;2023-05-07T12:05:59;5.25;;;2.47;;
12878;SDS011;20617;49.476;10.986;2023-05-07T12:08:04;5.32;;;2.60;;
12878;SDS011;20617;49.476;10.986;2023-05-07T12:10:10;2.83;;;2.20;;
12878;SDS011;20617;49.476;10.986;2023-05-07T12:12:16;2.72;;;2.20;;
12878;SDS011;20617;49.476;10.986;2023-05-07T12:14:21;5.15;;;2.42;;
12878;SDS011;20617;49.476;10.986;2023-05-07T12:16:31;2.97;;;2.40;;
12878;SDS011;20617;49.476;10.986;2023-05-07T12:18:40;2.55;;;2.30;;
12878;SDS011;20617;49.476;10.986;2023-05-07T12:20:45;2.28;;;2.08;;
12878;SDS011;20617;49.476;10.986;2023-05-07T12:22:51;7.45;;;2.30;;
12878;SDS011;20617;49.476;10.986;2023-05-07T12:24:57;2.95;;;2.17;;
12878;SDS011;20617;49.476;10.986;2023-05-07T12:27:04;1.90;;;1.70;;
12878;SDS011;20617;49.476;10.986;2023-05-07T12:31:14;3.42;;;2.53;;
12878;SDS011;20617;49.476;10.986;2023-05-07T12:33:23;2.65;;;2.15;;
12878;SDS011;20617;49.476;10.986;2023-05-07T12:35:35;3.08;;;2.55;;
12878;SDS011;20617;49.476;10.986;2023-05-07T12:37:42;4.00;;;2.47;;
12878;SDS011;20617;49.476;10.986;2023-05-07T12:39:47;2.70;;;2.47;;
12878;SDS011;20617;49.476;10.986;2023-05-07T12:41:53;3.28;;;2.97;;
12878;SDS011;20617;49.476;10.986;2023-05-07T12:44:01;4.15;;;2.67;;
12878;SDS011;20617;49.476;10.986;2023-05-07T12:46:08;4.47;;;3.03;;
12878;SDS011;20617;49.476;10.986;2023-05-07T12:48:15;3.85;;;3.03;;
12878;SDS011;20617;49.476;10.986;2023-05-07T12:50:20;8.88;;;3.05;;
12878;SDS011;20617;49.476;10.986;2023-05-07T12:52:28;4.30;;;2.80;;
12878;SDS011;20617;49.476;10.986;2023-05-07T12:54:34;3.40;;;2.70;;
12878;SDS011;20617;49.476;10.986;2023-05-07T12:56:41;3.63;;;2.90;;
12878;SDS011;20617;49.476;10.986;2023-05-07T12:58:46;4.32;;;2.95;;
12878;SDS011;20617;49.476;10.986;2023-05-07T13:00:53;3.47;;;2.80;;
12878;SDS011;20617;49.476;10.986;2023-05-07T13:03:01;3.92;;;2.85;;
12878;SDS011;20617;49.476;10.986;2023-05-07T13:05:07;3.03;;;2.72;;
12878;SDS011;20617;49.476;10.986;2023-05-07T13:07:13;3.05;;;2.58;;
12878;SDS011;20617;49.476;10.986;2023-05-07T13:11:25;3.80;;;2.97;;
12878;SDS011;20617;49.476;10.986;2023-05-07T13:13:30;3.65;;;2.70;;
12878;SDS011;20617;49.476;10.986;2023-05-07T13:15:36;3.53;;;2.80;;
12878;SDS011;20617;49.476;10.986;2023-05-07T13:17:42;2.65;;;2.30;;
12878;SDS011;20617;49.476;10.986;2023-05-07T13:19:47;5.60;;;2.95;;
12878;SDS011;20617;49.476;10.986;2023-05-07T13:23:56;2.85;;;2.42;;
12878;SDS011;20617;49.476;10.986;2023-05-07T13:26:04;9.38;;;2.75;;
12878;SDS011;20617;49.476;10.986;2023-05-07T13:28:26;3.55;;;2.30;;
12878;SDS011;20617;49.476;10.986;2023-05-07T13:30:32;3.00;;;2.50;;